Time;durP1;ratioP1;P1;durP2;ratioP2;P2;SDS_P1;SDS_P2;PMS_P1;PMS_P2;Temp;Humidity;BMP_temperature;BMP_pressure;BME280_temperature;BME280_humidity;BME280_pressure;Samples;Min_cycle;Max_cycle;Signal;HPM_P1;HPM_P2
2023/02/23 00:01:26;;;;;;;4.80;4.32;;;;;;;;;;5045369;28;20045;-83
2023/02/23 00:03:55;;;;;;;7.60;5.00;;;;;;;;;;5054893;28;20052;-83
2023/02/23 00:06:23;;;;;;;7.38;4.60;;;;;;;;;;5054909;28;20123;-83
2023/02/23 00:08:51;;;;;;;6.57;4.25;;;;;;;;;;5054459;28;20143;-83
2023/02/23 00:11:19;;;;;;;7.43;4.70;;;;;;;;;;5037306;28;20049;-83
2023/02/23 00:13:51;;;;;;;6.72;4.90;;;;;;;;;;5054564;28;20087;-84
2023/02/23 00:16:27;;;;;;;5.28;4.40;;;;;;;;;;5037010;28;20057;-83
2023/02/23 00:18:59;;;;;;;5.63;4.38;;;;;;;;;;5033933;28;20454;-83
2023/02/23 00:21:34;;;;;;;5.70;4.57;;;;;;;;;;5054540;28;20045;-83
2023/02/23 00:24:05;;;;;;;7.72;4.20;;;;;;;;;;5054486;28;20056;-83
2023/02/23 00:26:34;;;;;;;7.07;4.65;;;;;;;;;;5037008;28;20505;-84
2023/02/23 00:29:02;;;;;;;5.25;4.28;;;;;;;;;;5054357;28;20416;-83
2023/02/23 00:31:29;;;;;;;6.43;4.45;;;;;;;;;;5037000;28;20445;-83
2023/02/23 00:33:58;;;;;;;5.53;4.50;;;;;;;;;;5036763;28;20508;-84
2023/02/23 00:36:27;;;;;;;5.28;4.05;;;;;;;;;;5036908;28;20045;-83
2023/02/23 00:38:55;;;;;;;5.75;4.07;;;;;;;;;;5053984;28;20515;-83
2023/02/23 00:41:29;;;;;;;4.95;4.05;;;;;;;;;;5036434;28;20491;-83
2023/02/23 00:43:57;;;;;;;8.93;4.40;;;;;;;;;;5053661;28;20044;-82
2023/02/23 00:46:26;;;;;;;9.70;4.28;;;;;;;;;;5054162;28;20099;-83
2023/02/23 00:48:56;;;;;;;6.97;4.32;;;;;;;;;;5036027;28;20053;-83
2023/02/23 00:51:31;;;;;;;6.22;4.78;;;;;;;;;;5036837;28;20051;-83
2023/02/23 00:53:59;;;;;;;5.90;4.35;;;;;;;;;;5054266;28;20063;-83
2023/02/23 00:56:27;;;;;;;5.00;4.25;;;;;;;;;;5036061;28;20045;-83
2023/02/23 00:58:55;;;;;;;6.20;4.13;;;;;;;;;;5053811;28;20053;-83
2023/02/23 01:01:22;;;;;;;5.60;3.97;;;;;;;;;;5036443;28;20052;-83
2023/02/23 01:03:52;;;;;;;6.28;4.20;;;;;;;;;;5054108;28;20049;-83
2023/02/23 01:06:19;;;;;;;6.57;4.22;;;;;;;;;;5035975;28;20077;-83
2023/02/23 01:08:47;;;;;;;5.47;3.88;;;;;;;;;;5053746;28;20415;-82
2023/02/23 01:11:17;;;;;;;6.25;4.20;;;;;;;;;;5036030;28;20044;-83
2023/02/23 01:13:46;;;;;;;6.82;4.68;;;;;;;;;;5035630;28;20539;-83
2023/02/23 01:16:14;;;;;;;6.63;4.13;;;;;;;;;;5054135;28;20055;-83
2023/02/23 01:18:43;;;;;;;6.22;3.90;;;;;;;;;;5036595;28;20479;-83
2023/02/23 01:21:14;;;;;;;7.60;4.28;;;;;;;;;;5053573;28;20076;-83
2023/02/23 01:23:42;;;;;;;6.18;5.13;;;;;;;;;;5036176;28;20486;-83
2023/02/23 01:26:19;;;;;;;4.75;3.90;;;;;;;;;;5035811;28;20053;-82
2023/02/23 01:28:54;;;;;;;8.30;4.57;;;;;;;;;;5035769;28;20438;-83
2023/02/23 01:31:22;;;;;;;5.57;4.00;;;;;;;;;;5035963;28;20486;-82
2023/02/23 01:33:53;;;;;;;7.38;4.22;;;;;;;;;;5053223;28;20127;-83
2023/02/23 01:36:21;;;;;;;6.82;4.63;;;;;;;;;;5053594;28;20049;-83
2023/02/23 01:38:49;;;;;;;5.35;4.13;;;;;;;;;;5036188;28;20056;-83
2023/02/23 01:41:16;;;;;;;6.78;4.03;;;;;;;;;;5035885;28;20045;-83
2023/02/23 01:43:59;;;;;;;6.57;3.53;;;;;;;;;;5053880;28;20087;-82
2023/02/23 01:46:26;;;;;;;4.82;3.90;;;;;;;;;;5041732;28;20044;-83
2023/02/23 01:48:55;;;;;;;4.80;4.20;;;;;;;;;;5059490;28;20037;-83
2023/02/23 01:51:24;;;;;;;5.80;4.30;;;;;;;;;;5056738;28;20056;-83
2023/02/23 01:53:55;;;;;;;7.88;4.47;;;;;;;;;;5057514;28;20049;-83
2023/02/23 01:56:25;;;;;;;4.97;4.25;;;;;;;;;;5039458;28;20055;-83
2023/02/23 01:58:54;;;;;;;6.20;4.50;;;;;;;;;;5039848;28;20072;-83
2023/02/23 02:01:22;;;;;;;4.75;4.22;;;;;;;;;;5039365;28;20052;-83
2023/02/23 02:04:01;;;;;;;6.70;4.05;;;;;;;;;;5057021;28;20055;-83
2023/02/23 02:06:29;;;;;;;7.13;4.07;;;;;;;;;;5039184;28;20510;-83
2023/02/23 02:08:59;;;;;;;5.18;4.25;;;;;;;;;;5056918;28;20485;-83
2023/02/23 02:11:29;;;;;;;5.20;4.60;;;;;;;;;;5039035;28;20056;-83
2023/02/23 02:13:58;;;;;;;5.63;4.75;;;;;;;;;;5038931;28;20528;-83
2023/02/23 02:16:34;;;;;;;5.78;4.70;;;;;;;;;;5056288;28;20135;-83
2023/02/23 02:19:22;;;;;;;10.13;4.95;;;;;;;;;;5038466;28;20053;-83
2023/02/23 02:22:09;;;;;;;6.35;4.57;;;;;;;;;;5043221;28;20068;-83
2023/02/23 02:24:55;;;;;;;6.55;4.72;;;;;;;;;;5057062;28;20049;-83
2023/02/23 02:27:42;;;;;;;4.72;4.22;;;;;;;;;;5056747;28;20053;-83
2023/02/23 02:30:18;;;;;;;5.90;4.15;;;;;;;;;;5056564;28;20053;-83
2023/02/23 02:33:04;;;;;;;6.53;4.63;;;;;;;;;;5039037;28;20041;-83
2023/02/23 02:35:32;;;;;;;6.85;4.97;;;;;;;;;;5038971;28;20470;-83
2023/02/23 02:38:19;;;;;;;6.00;4.13;;;;;;;;;;5056276;28;20512;-83
2023/02/23 02:40:54;;;;;;;8.77;4.75;;;;;;;;;;5055938;28;20132;-83
2023/02/23 02:43:24;;;;;;;5.65;4.75;;;;;;;;;;5039272;28;20405;-83
2023/02/23 02:46:10;;;;;;;5.53;4.82;;;;;;;;;;5038919;28;20056;-83
2023/02/23 02:48:58;;;;;;;7.95;4.30;;;;;;;;;;5056602;28;20120;-83
2023/02/23 02:51:28;;;;;;;4.47;4.07;;;;;;;;;;5038887;28;20493;-83
2023/02/23 02:53:55;;;;;;;5.53;4.35;;;;;;;;;;5056818;28;20049;-83
2023/02/23 02:56:23;;;;;;;11.73;5.20;;;;;;;;;;5039218;28;20049;-83
2023/02/23 02:58:52;;;;;;;5.00;4.22;;;;;;;;;;5055930;28;20428;-84
2023/02/23 04:17:35;;;;;;;5.13;4.63;;;;;;;;;;5054657;28;20053;-83
2023/02/23 04:20:02;;;;;;;5.70;5.10;;;;;;;;;;5054117;28;20053;-82
2023/02/23 04:22:30;;;;;;;5.20;4.32;;;;;;;;;;5054396;28;20044;-82
2023/02/23 04:24:57;;;;;;;8.65;4.45;;;;;;;;;;5054850;28;20044;-83
2023/02/23 04:27:24;;;;;;;4.95;4.32;;;;;;;;;;5055085;28;20071;-83
2023/02/23 04:29:51;;;;;;;6.97;4.20;;;;;;;;;;5036748;28;20052;-83
2023/02/23 04:32:19;;;;;;;6.70;4.20;;;;;;;;;;5037804;28;20045;-83
2023/02/23 04:34:47;;;;;;;5.85;4.50;;;;;;;;;;5055353;28;20057;-83
2023/02/23 04:37:14;;;;;;;12.15;4.43;;;;;;;;;;5054535;28;20324;-82
2023/02/23 04:39:48;;;;;;;4.70;3.90;;;;;;;;;;5037308;28;20056;-83
2023/02/23 04:42:16;;;;;;;7.05;4.10;;;;;;;;;;5036789;28;20041;-83
2023/02/23 04:44:43;;;;;;;8.75;4.18;;;;;;;;;;5055190;28;20056;-82
2023/02/23 04:47:11;;;;;;;8.25;4.13;;;;;;;;;;5055802;28;20481;-82
2023/02/23 04:49:38;;;;;;;10.07;4.90;;;;;;;;;;5055533;28;20049;-83
2023/02/23 04:52:05;;;;;;;5.82;3.60;;;;;;;;;;5036421;28;20641;-82
2023/02/23 04:54:32;;;;;;;6.72;5.05;;;;;;;;;;5037556;28;20055;-83
2023/02/23 04:57:00;;;;;;;7.68;4.70;;;;;;;;;;5060853;28;20049;-83
2023/02/23 04:59:27;;;;;;;4.47;4.07;;;;;;;;;;5036520;28;20049;-82
2023/02/23 05:01:54;;;;;;;5.78;3.92;;;;;;;;;;5038046;28;20577;-83
2023/02/23 05:04:22;;;;;;;5.20;3.90;;;;;;;;;;5039262;28;20520;-82
2023/02/23 05:06:49;;;;;;;5.22;4.20;;;;;;;;;;5055269;28;20045;-83
2023/02/23 05:09:17;;;;;;;8.23;4.35;;;;;;;;;;5054846;28;20061;-83
2023/02/23 05:11:45;;;;;;;6.90;3.92;;;;;;;;;;5036379;28;20073;-83
2023/02/23 05:14:12;;;;;;;5.03;4.05;;;;;;;;;;5036031;28;20049;-83
2023/02/23 05:16:39;;;;;;;6.93;4.28;;;;;;;;;;5038632;28;20057;-83
2023/02/23 05:19:07;;;;;;;7.38;4.20;;;;;;;;;;5058152;28;20131;-82
2023/02/23 05:21:34;;;;;;;6.38;4.18;;;;;;;;;;5057998;28;20136;-82
2023/02/23 05:24:01;;;;;;;5.80;4.65;;;;;;;;;;5061098;28;20056;-83
2023/02/23 05:26:28;;;;;;;6.60;5.15;;;;;;;;;;5061450;28;20421;-83
2023/02/23 05:28:56;;;;;;;5.68;4.55;;;;;;;;;;5068443;28;20045;-83
2023/02/23 05:31:24;;;;;;;5.28;4.70;;;;;;;;;;5061408;28;20049;-83
2023/02/23 05:33:51;;;;;;;11.55;5.45;;;;;;;;;;5074405;28;20493;-83
2023/02/23 05:36:20;;;;;;;7.90;4.43;;;;;;;;;;5063060;28;20049;-83
2023/02/23 05:38:48;;;;;;;9.55;4.20;;;;;;;;;;5063937;28;20074;-82
2023/02/23 05:41:20;;;;;;;5.28;4.72;;;;;;;;;;5046797;28;20131;-83
2023/02/23 05:43:49;;;;;;;5.18;4.57;;;;;;;;;;5063507;28;20049;-82
2023/02/23 05:46:19;;;;;;;5.30;4.28;;;;;;;;;;5046768;28;20116;-83
2023/02/23 05:48:47;;;;;;;5.82;5.22;;;;;;;;;;5046963;28;20053;-83
2023/02/23 05:51:15;;;;;;;5.25;4.75;;;;;;;;;;5048340;28;20049;-83
2023/02/23 05:53:42;;;;;;;9.10;5.75;;;;;;;;;;5048475;28;20059;-83
2023/02/23 05:56:12;;;;;;;12.48;5.70;;;;;;;;;;5066088;28;20136;-83
2023/02/23 05:58:39;;;;;;;7.60;5.63;;;;;;;;;;5049260;28;20121;-83
2023/02/23 06:01:07;;;;;;;7.78;5.60;;;;;;;;;;5050568;28;20052;-83
2023/02/23 06:03:34;;;;;;;8.40;5.97;;;;;;;;;;5067178;28;20112;-83
2023/02/23 06:06:03;;;;;;;6.65;5.55;;;;;;;;;;5065947;28;20112;-83
2023/02/23 06:08:30;;;;;;;6.95;5.97;;;;;;;;;;5065001;28;20112;-83
2023/02/23 06:10:57;;;;;;;8.80;5.35;;;;;;;;;;5062925;28;20081;-83
2023/02/23 06:13:25;;;;;;;9.70;6.10;;;;;;;;;;5063525;28;20080;-82
2023/02/23 06:15:52;;;;;;;10.30;6.30;;;;;;;;;;5046544;28;20053;-81
2023/02/23 06:18:21;;;;;;;7.55;5.40;;;;;;;;;;5047089;28;20521;-82
2023/02/23 06:20:48;;;;;;;7.05;5.95;;;;;;;;;;5065666;28;20049;-83
2023/02/23 06:23:16;;;;;;;8.55;5.95;;;;;;;;;;5065075;28;20056;-83
2023/02/23 06:25:44;;;;;;;7.90;6.22;;;;;;;;;;5031874;28;20140;-82
2023/02/23 06:28:11;;;;;;;11.52;6.03;;;;;;;;;;5066016;28;20150;-83
2023/02/23 06:30:39;;;;;;;10.35;6.45;;;;;;;;;;5048281;28;20048;-83
2023/02/23 06:33:07;;;;;;;8.20;5.78;;;;;;;;;;5048484;28;20493;-83
2023/02/23 06:35:34;;;;;;;7.45;6.32;;;;;;;;;;5046908;28;20051;-83
2023/02/23 06:38:02;;;;;;;9.65;5.90;;;;;;;;;;5047940;28;20060;-83
2023/02/23 06:40:30;;;;;;;8.45;5.40;;;;;;;;;;5065829;28;20053;-82
2023/02/23 06:42:57;;;;;;;9.55;6.22;;;;;;;;;;5065864;28;20052;-83
2023/02/23 06:45:24;;;;;;;11.40;7.80;;;;;;;;;;5064990;28;20068;-83
2023/02/23 06:47:52;;;;;;;9.65;6.40;;;;;;;;;;5046434;28;20052;-82
2023/02/23 06:50:20;;;;;;;14.18;7.65;;;;;;;;;;5064243;28;20122;-83
2023/02/23 06:52:48;;;;;;;12.65;9.10;;;;;;;;;;5066360;28;20048;-82
2023/02/23 06:55:16;;;;;;;46.40;26.63;;;;;;;;;;5048253;28;20105;-83
2023/02/23 06:57:43;;;;;;;13.65;8.68;;;;;;;;;;5066609;28;20547;-82
2023/02/23 07:00:13;;;;;;;8.32;5.82;;;;;;;;;;5064545;28;20412;-83
2023/02/23 07:02:42;;;;;;;7.60;5.63;;;;;;;;;;5065910;28;20219;-83
2023/02/23 07:05:10;;;;;;;18.20;11.27;;;;;;;;;;5065713;28;20056;-82
2023/02/23 07:07:38;;;;;;;10.55;6.93;;;;;;;;;;5066484;28;20047;-83
2023/02/23 07:10:05;;;;;;;6.15;5.45;;;;;;;;;;5065821;28;20049;-83
2023/02/23 07:12:33;;;;;;;25.55;15.98;;;;;;;;;;5047081;28;20095;-82
2023/02/23 07:15:00;;;;;;;59.63;35.08;;;;;;;;;;5046704;28;20136;-83
2023/02/23 07:17:27;;;;;;;55.67;34.72;;;;;;;;;;5047301;28;20151;-83
2023/02/23 07:19:54;;;;;;;32.80;17.90;;;;;;;;;;5050403;28;20055;-82
2023/02/23 07:22:23;;;;;;;32.13;18.20;;;;;;;;;;5076995;28;20072;-83
2023/02/23 07:24:52;;;;;;;31.60;21.13;;;;;;;;;;5058743;28;20076;-83
2023/02/23 07:27:19;;;;;;;31.45;21.90;;;;;;;;;;5049354;28;20140;-83
2023/02/23 07:29:46;;;;;;;38.92;23.83;;;;;;;;;;5067664;28;20108;-82
2023/02/23 07:32:14;;;;;;;30.73;20.75;;;;;;;;;;5049699;28;20053;-83
2023/02/23 07:34:41;;;;;;;27.52;19.23;;;;;;;;;;5065645;28;20045;-83
2023/02/23 07:37:09;;;;;;;27.38;18.80;;;;;;;;;;5065229;28;20547;-82
2023/02/23 07:39:36;;;;;;;24.52;17.52;;;;;;;;;;5049141;28;20056;-83
2023/02/23 07:42:04;;;;;;;29.73;18.67;;;;;;;;;;5048676;28;20063;-83
2023/02/23 07:44:31;;;;;;;22.58;16.98;;;;;;;;;;5070823;28;20100;-83
2023/02/23 07:46:58;;;;;;;22.20;16.27;;;;;;;;;;5051007;28;20290;-83
2023/02/23 07:49:25;;;;;;;20.67;15.50;;;;;;;;;;5065326;28;20053;-83
2023/02/23 07:51:53;;;;;;;23.30;14.77;;;;;;;;;;5065333;28;20045;-83
2023/02/23 07:54:20;;;;;;;14.38;9.77;;;;;;;;;;5049714;28;20561;-83
2023/02/23 07:56:48;;;;;;;14.55;10.70;;;;;;;;;;5043954;28;20113;-82
2023/02/23 07:59:16;;;;;;;14.25;9.23;;;;;;;;;;5044046;28;20064;-83
2023/02/23 08:01:43;;;;;;;13.95;11.88;;;;;;;;;;5049419;28;20502;-83
2023/02/23 08:04:11;;;;;;;33.75;24.50;;;;;;;;;;5066456;28;20076;-83
2023/02/23 08:06:38;;;;;;;19.08;13.93;;;;;;;;;;5049587;28;20105;-83
2023/02/23 08:09:06;;;;;;;14.18;10.07;;;;;;;;;;5049578;28;20052;-82
2023/02/23 08:11:33;;;;;;;13.70;9.32;;;;;;;;;;5048507;28;20053;-83
2023/02/23 08:14:01;;;;;;;11.95;8.68;;;;;;;;;;5051039;28;20080;-83
2023/02/23 08:16:28;;;;;;;12.38;9.50;;;;;;;;;;5052266;28;20056;-83
2023/02/23 08:18:59;;;;;;;13.88;8.57;;;;;;;;;;5048991;28;20087;-83
2023/02/23 08:21:30;;;;;;;12.13;7.65;;;;;;;;;;5047395;28;20060;-83
2023/02/23 08:23:58;;;;;;;10.38;7.70;;;;;;;;;;5050323;28;20049;-83
2023/02/23 08:26:26;;;;;;;10.77;7.18;;;;;;;;;;5049169;28;20079;-83
2023/02/23 08:28:54;;;;;;;8.75;6.40;;;;;;;;;;5047270;28;20045;-84
2023/02/23 08:31:22;;;;;;;8.20;6.75;;;;;;;;;;5047648;28;20055;-84
2023/02/23 08:33:51;;;;;;;8.90;6.55;;;;;;;;;;5061363;28;20049;-83
2023/02/23 08:36:19;;;;;;;14.52;10.98;;;;;;;;;;5045162;28;20083;-84
2023/02/23 08:38:47;;;;;;;11.52;7.97;;;;;;;;;;5044959;28;20049;-84
2023/02/23 08:41:15;;;;;;;25.02;17.23;;;;;;;;;;5067007;28;20468;-83
2023/02/23 08:43:43;;;;;;;12.10;7.60;;;;;;;;;;5068634;28;20048;-83
2023/02/23 08:46:10;;;;;;;9.50;7.40;;;;;;;;;;5063200;28;20109;-83
2023/02/23 08:48:39;;;;;;;10.80;7.32;;;;;;;;;;5063542;28;20072;-84
2023/02/23 08:51:07;;;;;;;14.15;9.32;;;;;;;;;;5064502;28;20055;-84
2023/02/23 08:53:35;;;;;;;10.52;8.15;;;;;;;;;;5043592;28;20509;-83
2023/02/23 08:56:04;;;;;;;102.80;50.15;;;;;;;;;;5060131;28;20114;-83
2023/02/23 08:58:34;;;;;;;21.77;12.88;;;;;;;;;;5043562;28;20360;-83
2023/02/23 09:01:02;;;;;;;16.15;9.90;;;;;;;;;;5045448;28;20072;-84
2023/02/23 09:03:31;;;;;;;12.90;7.93;;;;;;;;;;5062223;28;20143;-84
2023/02/23 09:06:06;;;;;;;11.32;6.85;;;;;;;;;;5046152;28;20056;-83
2023/02/23 09:08:33;;;;;;;12.20;7.60;;;;;;;;;;5046234;28;20056;-84
2023/02/23 09:11:00;;;;;;;16.20;10.25;;;;;;;;;;5046832;28;20049;-84
2023/02/23 09:13:28;;;;;;;12.23;8.15;;;;;;;;;;5058061;28;20076;-82
2023/02/23 09:15:55;;;;;;;17.75;8.70;;;;;;;;;;5057658;28;20064;-84
2023/02/23 09:18:28;;;;;;;15.88;10.15;;;;;;;;;;5046517;28;20065;-84
2023/02/23 09:20:56;;;;;;;11.82;8.38;;;;;;;;;;5059456;28;20564;-84
2023/02/23 09:23:24;;;;;;;10.85;8.55;;;;;;;;;;5048975;28;20055;-84
2023/02/23 09:25:51;;;;;;;18.80;8.60;;;;;;;;;;5030090;28;20052;-84
2023/02/23 09:28:19;;;;;;;12.57;8.98;;;;;;;;;;5025184;28;20409;-84
2023/02/23 09:30:47;;;;;;;15.43;9.60;;;;;;;;;;5041461;28;20041;-84
2023/02/23 09:33:16;;;;;;;11.13;7.85;;;;;;;;;;5025068;28;20053;-84
2023/02/23 09:35:43;;;;;;;16.90;9.23;;;;;;;;;;5024850;28;20053;-84
2023/02/23 09:38:10;;;;;;;12.00;9.30;;;;;;;;;;5025147;28;20073;-84
2023/02/23 09:40:46;;;;;;;9.63;8.55;;;;;;;;;;5050346;28;20541;-84
2023/02/23 09:43:15;;;;;;;16.73;9.35;;;;;;;;;;5034165;28;20053;-84
2023/02/23 09:45:47;;;;;;;14.85;10.57;;;;;;;;;;5030823;28;20113;-83
2023/02/23 09:48:19;;;;;;;14.52;10.07;;;;;;;;;;5025467;28;20449;-84
2023/02/23 09:50:48;;;;;;;14.70;10.18;;;;;;;;;;5043277;28;20041;-83
2023/02/23 09:53:35;;;;;;;14.27;9.95;;;;;;;;;;5043106;28;20045;-84
2023/02/23 09:56:05;;;;;;;15.45;10.00;;;;;;;;;;5026528;28;20050;-84
2023/02/23 09:58:33;;;;;;;14.52;9.70;;;;;;;;;;5025686;28;20046;-83
2023/02/23 10:01:03;;;;;;;17.13;11.07;;;;;;;;;;5026739;28;20076;-83
2023/02/23 10:03:33;;;;;;;15.73;10.25;;;;;;;;;;5027908;28;20058;-83
2023/02/23 10:06:03;;;;;;;22.90;11.75;;;;;;;;;;5043412;28;20088;-83
2023/02/23 10:08:37;;;;;;;26.38;12.70;;;;;;;;;;5025833;28;20057;-84
2023/02/23 10:11:04;;;;;;;;;;;;;;;;;;5031347;28;20053;-83
2023/02/23 10:13:44;;;;;;;18.55;13.13;;;;;;;;;;5030514;28;20459;-84
2023/02/23 10:16:21;;;;;;;20.33;12.93;;;;;;;;;;5047250;28;20053;-83
2023/02/23 10:18:55;;;;;;;21.52;13.50;;;;;;;;;;5047326;28;20052;-84
2023/02/23 10:21:37;;;;;;;22.13;13.55;;;;;;;;;;5033555;28;20486;-84
2023/02/23 10:24:11;;;;;;;19.00;11.73;;;;;;;;;;5046144;28;20045;-83
2023/02/23 10:26:50;;;;;;;20.90;12.95;;;;;;;;;;5028115;28;20068;-84
2023/02/23 10:29:36;;;;;;;17.27;11.90;;;;;;;;;;5029494;28;20055;-84
2023/02/23 10:32:05;;;;;;;20.08;11.48;;;;;;;;;;5046158;28;20399;-83
2023/02/23 10:34:33;;;;;;;18.38;11.32;;;;;;;;;;5029342;28;20060;-83
2023/02/23 10:37:02;;;;;;;21.02;12.40;;;;;;;;;;5029627;28;20053;-83
2023/02/23 10:39:30;;;;;;;20.50;11.88;;;;;;;;;;5045993;28;20088;-83
2023/02/23 10:42:02;;;;;;;25.13;12.05;;;;;;;;;;5045590;28;20049;-83
2023/02/23 10:44:29;;;;;;;21.15;11.85;;;;;;;;;;5030205;28;20556;-84
2023/02/23 10:46:59;;;;;;;20.00;11.93;;;;;;;;;;5028532;28;20049;-83
2023/02/23 10:49:29;;;;;;;21.25;12.25;;;;;;;;;;5030012;28;20060;-84
2023/02/23 10:52:01;;;;;;;23.80;12.93;;;;;;;;;;5029001;28;20122;-83
2023/02/23 10:54:44;;;;;;;22.45;12.48;;;;;;;;;;5029374;28;20057;-83
2023/02/23 10:57:18;;;;;;;17.70;11.43;;;;;;;;;;5026905;28;20049;-82
2023/02/23 10:59:59;;;;;;;26.30;12.23;;;;;;;;;;5048667;28;20054;-83
2023/02/23 11:02:29;;;;;;;24.88;12.02;;;;;;;;;;5030993;28;20087;-84
2023/02/23 11:04:57;;;;;;;23.65;12.48;;;;;;;;;;5041355;28;20101;-83
2023/02/23 11:07:33;;;;;;;29.23;11.82;;;;;;;;;;5058967;28;20046;-84
2023/02/23 11:10:19;;;;;;;16.95;10.98;;;;;;;;;;5029763;28;20048;-84
2023/02/23 11:12:48;;;;;;;22.60;12.35;;;;;;;;;;5047193;28;20107;-84
2023/02/23 11:15:22;;;;;;;19.60;11.80;;;;;;;;;;5029138;28;20056;-84
2023/02/23 11:17:58;;;;;;;23.60;10.75;;;;;;;;;;5029304;28;20053;-84
2023/02/23 11:20:37;;;;;;;25.38;10.95;;;;;;;;;;5028044;28;20099;-84
2023/02/23 11:23:16;;;;;;;14.95;9.05;;;;;;;;;;5046986;28;20054;-83
2023/02/23 11:25:45;;;;;;;16.80;9.80;;;;;;;;;;5029112;28;20050;-84
2023/02/23 11:28:21;;;;;;;16.60;9.18;;;;;;;;;;5030336;28;20041;-84
2023/02/23 11:30:49;;;;;;;13.27;8.63;;;;;;;;;;5046713;28;20088;-84
2023/02/23 11:33:18;;;;;;;19.58;8.57;;;;;;;;;;5028075;28;20124;-84
2023/02/23 11:35:45;;;;;;;18.27;7.28;;;;;;;;;;5024910;28;20132;-84
2023/02/23 11:38:26;;;;;;;18.95;8.57;;;;;;;;;;5025424;28;20556;-84
2023/02/23 11:41:01;;;;;;;26.85;7.85;;;;;;;;;;5026610;28;20077;-83
2023/02/23 11:43:28;;;;;;;10.13;6.68;;;;;;;;;;5026443;28;20049;-84
2023/02/23 11:45:58;;;;;;;9.48;6.35;;;;;;;;;;5027874;28;20056;-84
2023/02/23 11:48:25;;;;;;;13.52;7.22;;;;;;;;;;5045146;28;20052;-83
2023/02/23 11:50:53;;;;;;;13.00;7.47;;;;;;;;;;5027962;28;20050;-83
2023/02/23 11:53:27;;;;;;;11.00;7.05;;;;;;;;;;5029126;28;20136;-83
2023/02/23 11:55:58;;;;;;;13.60;7.20;;;;;;;;;;5037169;28;20128;-83
2023/02/23 11:58:29;;;;;;;13.50;7.10;;;;;;;;;;5057082;28;20046;-83
2023/02/23 12:00:58;;;;;;;11.35;7.97;;;;;;;;;;5047218;28;20048;-83
2023/02/23 12:03:26;;;;;;;13.00;6.72;;;;;;;;;;5047592;28;20053;-84
2023/02/23 12:05:56;;;;;;;12.25;6.57;;;;;;;;;;5046875;28;20052;-84
2023/02/23 12:08:32;;;;;;;9.85;7.60;;;;;;;;;;5047538;28;20117;-83
2023/02/23 12:11:01;;;;;;;13.35;8.40;;;;;;;;;;5046820;28;20056;-83
2023/02/23 12:13:29;;;;;;;12.88;8.07;;;;;;;;;;5045543;28;20140;-84
2023/02/23 12:16:00;;;;;;;14.73;9.25;;;;;;;;;;5046608;28;20103;-83
2023/02/23 12:18:27;;;;;;;17.80;10.20;;;;;;;;;;5047247;28;20072;-83
2023/02/23 12:20:55;;;;;;;16.13;9.75;;;;;;;;;;5046827;28;20409;-84
2023/02/23 12:23:29;;;;;;;19.95;9.70;;;;;;;;;;5063879;28;20048;-83
2023/02/23 12:25:58;;;;;;;14.90;10.23;;;;;;;;;;5065314;28;20404;-83
2023/02/23 12:28:35;;;;;;;18.75;11.40;;;;;;;;;;5065226;28;20049;-83
2023/02/23 12:31:06;;;;;;;15.95;10.98;;;;;;;;;;5046703;28;20057;-83
2023/02/23 12:33:38;;;;;;;19.75;13.50;;;;;;;;;;5046461;28;20049;-84
2023/02/23 12:36:17;;;;;;;18.27;12.38;;;;;;;;;;5047637;28;20517;-83
2023/02/23 12:38:57;;;;;;;18.77;12.23;;;;;;;;;;5047051;28;20048;-81
2023/02/23 12:41:44;;;;;;;19.00;11.98;;;;;;;;;;5047163;28;20049;-84
2023/02/23 12:44:20;;;;;;;21.95;14.70;;;;;;;;;;5046299;28;20505;-83
2023/02/23 12:46:53;;;;;;;20.60;13.25;;;;;;;;;;5047271;28;20124;-83
2023/02/23 12:49:25;;;;;;;20.63;13.50;;;;;;;;;;5064811;28;20127;-83
2023/02/23 12:51:55;;;;;;;21.15;13.90;;;;;;;;;;5065232;28;20049;-82
2023/02/23 12:54:23;;;;;;;19.10;14.07;;;;;;;;;;5072113;28;20069;-83
2023/02/23 12:57:06;;;;;;;21.38;14.43;;;;;;;;;;5059335;28;20049;-83
2023/02/23 12:59:52;;;;;;;23.50;14.07;;;;;;;;;;5065948;28;20076;-83
2023/02/23 13:02:22;;;;;;;24.90;15.07;;;;;;;;;;5054945;28;20055;-83
2023/02/23 13:04:52;;;;;;;24.65;15.45;;;;;;;;;;5054721;28;20053;-84
2023/02/23 13:07:40;;;;;;;25.10;14.55;;;;;;;;;;5037674;28;20387;-83
2023/02/23 13:10:26;;;;;;;20.48;13.70;;;;;;;;;;5037415;28;20466;-83
2023/02/23 13:12:59;;;;;;;21.25;14.73;;;;;;;;;;5037591;28;20051;-84
2023/02/23 13:15:30;;;;;;;26.05;14.85;;;;;;;;;;5036926;28;20060;-84
2023/02/23 13:18:16;;;;;;;21.40;14.30;;;;;;;;;;5037730;28;20087;-84
2023/02/23 13:20:50;;;;;;;24.27;13.65;;;;;;;;;;5037666;28;20434;-83
2023/02/23 13:23:24;;;;;;;20.50;13.15;;;;;;;;;;5055078;28;20053;-84
2023/02/23 13:25:56;;;;;;;19.27;13.68;;;;;;;;;;5037144;28;20044;-83
2023/02/23 13:28:40;;;;;;;21.58;13.98;;;;;;;;;;5037377;28;20405;-84
2023/02/23 13:31:19;;;;;;;21.42;13.15;;;;;;;;;;5037191;28;20053;-83
2023/02/23 13:33:48;;;;;;;22.23;14.07;;;;;;;;;;5037733;28;20045;-84
2023/02/23 13:36:16;;;;;;;22.65;14.93;;;;;;;;;;5036581;28;20115;-84
2023/02/23 13:38:55;;;;;;;23.73;13.85;;;;;;;;;;5036346;28;20057;-83
2023/02/23 13:41:26;;;;;;;22.55;13.93;;;;;;;;;;5054773;28;20060;-84
2023/02/23 13:43:58;;;;;;;22.92;13.27;;;;;;;;;;5037888;28;20049;-83
2023/02/23 13:46:28;;;;;;;21.98;13.65;;;;;;;;;;5040564;28;20045;-84
2023/02/23 13:49:10;;;;;;;22.88;13.82;;;;;;;;;;5040515;28;20103;-83
2023/02/23 13:51:41;;;;;;;22.38;14.35;;;;;;;;;;5040822;28;20045;-84
2023/02/23 13:54:15;;;;;;;27.05;14.02;;;;;;;;;;5058428;28;20052;-84
2023/02/23 13:57:02;;;;;;;21.75;13.25;;;;;;;;;;5058491;28;20410;-84
2023/02/23 13:59:36;;;;;;;21.52;13.50;;;;;;;;;;5058290;28;20052;-84
2023/02/23 14:02:26;;;;;;;21.55;13.32;;;;;;;;;;5040676;28;20408;-83
2023/02/23 14:04:57;;;;;;;20.65;12.35;;;;;;;;;;5040984;28;20053;-84
2023/02/23 14:07:31;;;;;;;20.98;11.85;;;;;;;;;;5058613;28;20053;-84
2023/02/23 14:10:00;;;;;;;23.30;11.10;;;;;;;;;;5057360;28;20084;-83
2023/02/23 14:12:35;;;;;;;14.93;10.70;;;;;;;;;;5061557;28;20137;-83
2023/02/23 14:15:21;;;;;;;18.70;10.88;;;;;;;;;;5039742;28;20100;-84
2023/02/23 14:18:08;;;;;;;19.40;11.23;;;;;;;;;;5057755;28;20045;-83
2023/02/23 14:20:42;;;;;;;14.15;9.48;;;;;;;;;;5041582;28;20418;-84
2023/02/23 14:23:15;;;;;;;16.15;9.07;;;;;;;;;;5020361;28;20061;-83
2023/02/23 14:25:46;;;;;;;13.15;8.25;;;;;;;;;;5037876;28;20053;-83
2023/02/23 14:28:37;;;;;;;10.88;7.38;;;;;;;;;;5038254;28;20244;-83
2023/02/23 14:31:14;;;;;;;10.23;7.13;;;;;;;;;;5008693;28;20046;-83
2023/02/23 14:33:44;;;;;;;10.43;6.38;;;;;;;;;;5037942;28;20247;-84
2023/02/23 14:36:23;;;;;;;14.35;6.68;;;;;;;;;;5019942;28;20049;-83
2023/02/23 14:38:59;;;;;;;12.23;7.60;;;;;;;;;;5037631;28;20502;-83
2023/02/23 14:41:38;;;;;;;12.00;6.63;;;;;;;;;;5019932;28;20046;-83
2023/02/23 14:44:16;;;;;;;13.13;6.10;;;;;;;;;;5038050;28;20049;-84
2023/02/23 14:47:11;;;;;;;8.50;5.43;;;;;;;;;;5039463;28;20057;-84
2023/02/23 14:49:42;;;;;;;9.02;5.32;;;;;;;;;;5055174;28;20525;-83
2023/02/23 14:52:14;;;;;;;14.00;5.53;;;;;;;;;;5019968;28;20057;-83
2023/02/23 14:54:41;;;;;;;8.88;5.07;;;;;;;;;;5037132;28;20056;-83
2023/02/23 14:57:17;;;;;;;15.02;6.97;;;;;;;;;;5019114;28;20045;-84
2023/02/23 14:59:45;;;;;;;13.20;5.07;;;;;;;;;;5028911;28;20060;-83
2023/02/23 15:02:23;;;;;;;12.50;5.22;;;;;;;;;;5032315;28;20049;-84
2023/02/23 15:04:50;;;;;;;10.20;5.32;;;;;;;;;;5024842;28;20061;-84
2023/02/23 15:07:30;;;;;;;18.85;5.90;;;;;;;;;;5037131;28;20051;-84
2023/02/23 15:09:58;;;;;;;6.63;4.40;;;;;;;;;;5019632;28;20053;-83
2023/02/23 15:12:30;;;;;;;9.05;5.03;;;;;;;;;;5036297;28;20107;-84
2023/02/23 15:15:02;;;;;;;16.00;4.60;;;;;;;;;;5036145;28;20059;-84
2023/02/23 15:17:32;;;;;;;20.17;5.20;;;;;;;;;;5019807;28;20484;-84
2023/02/23 15:20:01;;;;;;;11.23;4.07;;;;;;;;;;5037018;28;20053;-84
2023/02/23 15:22:52;;;;;;;4.32;3.92;;;;;;;;;;5036112;28;20045;-83
2023/02/23 15:25:25;;;;;;;6.20;3.55;;;;;;;;;;5022323;28;20054;-83
2023/02/23 15:27:54;;;;;;;11.70;4.15;;;;;;;;;;5035993;28;20473;-83
2023/02/23 15:30:29;;;;;;;18.83;4.18;;;;;;;;;;5035553;28;20049;-84
2023/02/23 15:33:03;;;;;;;7.50;3.70;;;;;;;;;;5035576;28;20059;-84
2023/02/23 15:35:36;;;;;;;6.82;3.88;;;;;;;;;;5036658;28;20057;-83
2023/02/23 15:38:06;;;;;;;5.13;3.75;;;;;;;;;;5035752;28;20052;-83
2023/02/23 15:40:44;;;;;;;6.40;4.15;;;;;;;;;;5030984;28;20053;-84
2023/02/23 15:43:11;;;;;;;7.00;4.10;;;;;;;;;;5038069;28;20048;-84
2023/02/23 15:46:02;;;;;;;5.03;3.72;;;;;;;;;;5055738;28;20120;-84
2023/02/23 15:48:38;;;;;;;7.18;3.90;;;;;;;;;;5043397;28;20420;-84
2023/02/23 15:51:05;;;;;;;6.05;3.65;;;;;;;;;;5026437;28;20045;-84
2023/02/23 15:53:35;;;;;;;6.72;3.72;;;;;;;;;;5051857;28;20063;-84
2023/02/23 15:56:04;;;;;;;6.47;3.50;;;;;;;;;;5045031;28;20264;-84
2023/02/23 15:58:37;;;;;;;3.70;3.33;;;;;;;;;;5026399;28;20054;-84
2023/02/23 16:01:25;;;;;;;4.75;3.67;;;;;;;;;;5031044;28;20048;-84
2023/02/23 16:03:58;;;;;;;3.92;3.53;;;;;;;;;;5018077;28;20552;-84
2023/02/23 16:06:31;;;;;;;3.72;3.35;;;;;;;;;;5018055;28;20053;-83
2023/02/23 16:09:19;;;;;;;3.63;3.28;;;;;;;;;;5035761;28;20054;-84
2023/02/23 16:11:49;;;;;;;8.13;3.65;;;;;;;;;;5035785;28;20053;-84